sensor_id;sensor_type;location;lat;lon;timestamp;P1;durP1;ratioP1;P2;durP2;ratioP2
32906;SDS011;19259;51.590;5.320;2022-08-19T00:01:34;20.40;;;11.85;;
32906;SDS011;19259;51.590;5.320;2022-08-19T00:04:04;20.02;;;11.85;;
32906;SDS011;19259;51.590;5.320;2022-08-19T00:06:34;19.32;;;12.73;;
32906;SDS011;19259;51.590;5.320;2022-08-19T00:09:03;20.62;;;12.23;;
32906;SDS011;19259;51.590;5.320;2022-08-19T00:11:32;17.20;;;12.07;;
32906;SDS011;19259;51.590;5.320;2022-08-19T00:14:03;23.47;;;14.38;;
32906;SDS011;19259;51.590;5.320;2022-08-19T00:16:32;22.30;;;13.58;;
32906;SDS011;19259;51.590;5.320;2022-08-19T00:19:00;21.87;;;13.65;;
32906;SDS011;19259;51.590;5.320;2022-08-19T00:21:28;20.75;;;13.60;;
32906;SDS011;19259;51.590;5.320;2022-08-19T00:23:57;20.60;;;13.25;;
32906;SDS011;19259;51.590;5.320;2022-08-19T00:26:26;21.70;;;14.70;;
32906;SDS011;19259;51.590;5.320;2022-08-19T00:28:54;20.62;;;13.38;;
32906;SDS011;19259;51.590;5.320;2022-08-19T00:31:22;22.73;;;14.73;;
32906;SDS011;19259;51.590;5.320;2022-08-19T00:33:51;22.90;;;15.23;;
32906;SDS011;19259;51.590;5.320;2022-08-19T00:36:18;20.15;;;14.00;;
32906;SDS011;19259;51.590;5.320;2022-08-19T00:38:46;24.15;;;13.65;;
32906;SDS011;19259;51.590;5.320;2022-08-19T00:41:16;21.02;;;14.23;;
32906;SDS011;19259;51.590;5.320;2022-08-19T00:43:56;24.55;;;15.28;;
32906;SDS011;19259;51.590;5.320;2022-08-19T00:46:29;21.73;;;14.55;;
32906;SDS011;19259;51.590;5.320;2022-08-19T00:48:59;23.47;;;15.15;;
32906;SDS011;19259;51.590;5.320;2022-08-19T00:51:28;22.27;;;15.28;;
32906;SDS011;19259;51.590;5.320;2022-08-19T00:53:58;23.80;;;14.95;;
32906;SDS011;19259;51.590;5.320;2022-08-19T00:56:27;20.57;;;14.45;;
32906;SDS011;19259;51.590;5.320;2022-08-19T00:58:56;22.48;;;14.63;;
32906;SDS011;19259;51.590;5.320;2022-08-19T01:01:26;22.32;;;14.60;;
32906;SDS011;19259;51.590;5.320;2022-08-19T01:03:53;28.38;;;17.02;;
32906;SDS011;19259;51.590;5.320;2022-08-19T01:06:21;24.63;;;16.10;;
32906;SDS011;19259;51.590;5.320;2022-08-19T01:08:49;26.07;;;15.00;;
32906;SDS011;19259;51.590;5.320;2022-08-19T01:11:17;23.73;;;15.32;;
32906;SDS011;19259;51.590;5.320;2022-08-19T01:13:44;24.25;;;15.40;;
32906;SDS011;19259;51.590;5.320;2022-08-19T01:16:12;23.30;;;14.07;;
32906;SDS011;19259;51.590;5.320;2022-08-19T01:18:41;25.10;;;15.18;;
32906;SDS011;19259;51.590;5.320;2022-08-19T01:21:16;25.25;;;15.25;;
32906;SDS011;19259;51.590;5.320;2022-08-19T01:23:52;25.12;;;15.72;;
32906;SDS011;19259;51.590;5.320;2022-08-19T01:26:21;23.87;;;15.50;;
32906;SDS011;19259;51.590;5.320;2022-08-19T01:28:53;24.07;;;14.83;;
32906;SDS011;19259;51.590;5.320;2022-08-19T01:31:24;24.85;;;15.78;;
32906;SDS011;19259;51.590;5.320;2022-08-19T01:33:55;26.33;;;15.78;;
32906;SDS011;19259;51.590;5.320;2022-08-19T01:36:34;24.47;;;15.30;;
32906;SDS011;19259;51.590;5.320;2022-08-19T01:39:05;28.23;;;15.90;;
32906;SDS011;19259;51.590;5.320;2022-08-19T01:41:34;25.37;;;15.10;;
32906;SDS011;19259;51.590;5.320;2022-08-19T01:44:03;24.67;;;15.75;;
32906;SDS011;19259;51.590;5.320;2022-08-19T01:46:32;25.77;;;16.48;;
32906;SDS011;19259;51.590;5.320;2022-08-19T01:49:01;27.80;;;15.93;;
32906;SDS011;19259;51.590;5.320;2022-08-19T01:51:30;25.52;;;16.52;;
32906;SDS011;19259;51.590;5.320;2022-08-19T01:53:57;24.07;;;15.45;;
32906;SDS011;19259;51.590;5.320;2022-08-19T01:56:25;24.10;;;15.35;;
32906;SDS011;19259;51.590;5.320;2022-08-19T01:58:57;26.65;;;15.98;;
32906;SDS011;19259;51.590;5.320;2022-08-19T02:01:41;30.02;;;16.50;;
32906;SDS011;19259;51.590;5.320;2022-08-19T02:04:11;26.75;;;16.17;;
32906;SDS011;19259;51.590;5.320;2022-08-19T02:06:39;25.02;;;15.72;;
32906;SDS011;19259;51.590;5.320;2022-08-19T02:09:07;26.23;;;15.85;;
32906;SDS011;19259;51.590;5.320;2022-08-19T02:11:35;28.55;;;15.93;;
32906;SDS011;19259;51.590;5.320;2022-08-19T02:14:06;23.15;;;15.25;;
32906;SDS011;19259;51.590;5.320;2022-08-19T02:16:35;24.40;;;15.45;;
32906;SDS011;19259;51.590;5.320;2022-08-19T02:19:03;24.00;;;15.28;;
32906;SDS011;19259;51.590;5.320;2022-08-19T02:21:31;23.67;;;15.30;;
32906;SDS011;19259;51.590;5.320;2022-08-19T02:23:59;24.12;;;15.25;;
32906;SDS011;19259;51.590;5.320;2022-08-19T02:26:29;25.92;;;15.78;;
32906;SDS011;19259;51.590;5.320;2022-08-19T02:28:58;25.17;;;15.38;;
32906;SDS011;19259;51.590;5.320;2022-08-19T02:31:26;27.95;;;16.07;;
32906;SDS011;19259;51.590;5.320;2022-08-19T02:33:54;25.55;;;15.78;;
32906;SDS011;19259;51.590;5.320;2022-08-19T02:36:22;29.82;;;16.32;;
32906;SDS011;19259;51.590;5.320;2022-08-19T02:38:51;24.63;;;15.13;;
32906;SDS011;19259;51.590;5.320;2022-08-19T02:41:21;26.85;;;14.95;;
32906;SDS011;19259;51.590;5.320;2022-08-19T02:43:50;25.85;;;15.90;;
32906;SDS011;19259;51.590;5.320;2022-08-19T02:46:19;25.23;;;15.23;;
32906;SDS011;19259;51.590;5.320;2022-08-19T02:48:48;25.17;;;15.95;;
32906;SDS011;19259;51.590;5.320;2022-08-19T02:51:25;25.88;;;16.70;;
32906;SDS011;19259;51.590;5.320;2022-08-19T02:53:50;24.20;;;14.87;;
32906;SDS011;19259;51.590;5.320;2022-08-19T02:56:18;23.80;;;16.02;;
32906;SDS011;19259;51.590;5.320;2022-08-19T02:58:46;25.72;;;15.05;;
32906;SDS011;19259;51.590;5.320;2022-08-19T03:01:25;31.52;;;16.73;;
32906;SDS011;19259;51.590;5.320;2022-08-19T03:03:54;29.00;;;16.15;;
32906;SDS011;19259;51.590;5.320;2022-08-19T03:06:23;28.07;;;16.52;;
32906;SDS011;19259;51.590;5.320;2022-08-19T03:08:51;30.43;;;18.02;;
32906;SDS011;19259;51.590;5.320;2022-08-19T03:11:21;31.55;;;16.50;;
32906;SDS011;19259;51.590;5.320;2022-08-19T03:13:50;28.83;;;16.93;;
32906;SDS011;19259;51.590;5.320;2022-08-19T03:16:19;28.05;;;16.60;;
32906;SDS011;19259;51.590;5.320;2022-08-19T03:18:48;29.80;;;17.00;;
32906;SDS011;19259;51.590;5.320;2022-08-19T03:21:17;28.47;;;16.90;;
32906;SDS011;19259;51.590;5.320;2022-08-19T03:23:47;28.75;;;16.50;;
32906;SDS011;19259;51.590;5.320;2022-08-19T03:26:14;26.48;;;16.57;;
32906;SDS011;19259;51.590;5.320;2022-08-19T03:28:43;25.68;;;16.55;;
32906;SDS011;19259;51.590;5.320;2022-08-19T03:31:15;32.73;;;17.20;;
32906;SDS011;19259;51.590;5.320;2022-08-19T03:33:44;29.42;;;17.02;;
32906;SDS011;19259;51.590;5.320;2022-08-19T03:36:13;32.67;;;17.30;;
32906;SDS011;19259;51.590;5.320;2022-08-19T03:38:47;32.80;;;19.05;;
32906;SDS011;19259;51.590;5.320;2022-08-19T03:41:23;32.90;;;18.55;;
32906;SDS011;19259;51.590;5.320;2022-08-19T03:43:48;32.45;;;19.37;;
32906;SDS011;19259;51.590;5.320;2022-08-19T03:46:16;34.73;;;20.45;;
32906;SDS011;19259;51.590;5.320;2022-08-19T03:48:49;40.85;;;23.57;;
32906;SDS011;19259;51.590;5.320;2022-08-19T03:51:22;40.35;;;23.02;;
32906;SDS011;19259;51.590;5.320;2022-08-19T03:53:52;38.73;;;22.65;;
32906;SDS011;19259;51.590;5.320;2022-08-19T03:56:20;43.60;;;24.20;;
32906;SDS011;19259;51.590;5.320;2022-08-19T03:58:50;41.13;;;24.05;;
32906;SDS011;19259;51.590;5.320;2022-08-19T04:01:19;43.55;;;25.15;;
32906;SDS011;19259;51.590;5.320;2022-08-19T04:03:48;46.05;;;24.40;;
32906;SDS011;19259;51.590;5.320;2022-08-19T04:06:17;47.78;;;27.10;;
32906;SDS011;19259;51.590;5.320;2022-08-19T04:08:47;50.25;;;27.00;;
32906;SDS011;19259;51.590;5.320;2022-08-19T04:11:18;47.53;;;26.05;;
32906;SDS011;19259;51.590;5.320;2022-08-19T04:13:48;47.58;;;25.68;;
32906;SDS011;19259;51.590;5.320;2022-08-19T04:16:17;50.45;;;26.68;;
32906;SDS011;19259;51.590;5.320;2022-08-19T04:18:46;50.92;;;27.98;;
32906;SDS011;19259;51.590;5.320;2022-08-19T04:21:18;50.30;;;27.67;;
32906;SDS011;19259;51.590;5.320;2022-08-19T04:23:47;47.23;;;26.30;;
32906;SDS011;19259;51.590;5.320;2022-08-19T04:26:17;50.33;;;27.65;;
32906;SDS011;19259;51.590;5.320;2022-08-19T04:28:46;52.10;;;27.98;;
32906;SDS011;19259;51.590;5.320;2022-08-19T04:31:15;58.23;;;28.07;;
32906;SDS011;19259;51.590;5.320;2022-08-19T04:33:47;52.43;;;29.05;;
32906;SDS011;19259;51.590;5.320;2022-08-19T04:36:21;49.67;;;28.38;;
32906;SDS011;19259;51.590;5.320;2022-08-19T04:38:48;48.58;;;28.50;;
32906;SDS011;19259;51.590;5.320;2022-08-19T04:41:16;52.25;;;29.50;;
32906;SDS011;19259;51.590;5.320;2022-08-19T04:44:02;51.68;;;28.15;;
32906;SDS011;19259;51.590;5.320;2022-08-19T04:46:31;51.88;;;27.77;;
32906;SDS011;19259;51.590;5.320;2022-08-19T04:48:59;50.70;;;28.10;;
32906;SDS011;19259;51.590;5.320;2022-08-19T04:51:28;54.25;;;27.45;;
32906;SDS011;19259;51.590;5.320;2022-08-19T04:53:57;50.90;;;28.85;;
32906;SDS011;19259;51.590;5.320;2022-08-19T04:56:26;56.30;;;30.30;;
32906;SDS011;19259;51.590;5.320;2022-08-19T04:58:55;52.15;;;28.75;;
32906;SDS011;19259;51.590;5.320;2022-08-19T05:01:24;53.80;;;29.87;;
32906;SDS011;19259;51.590;5.320;2022-08-19T05:03:54;53.73;;;30.35;;
32906;SDS011;19259;51.590;5.320;2022-08-19T05:06:23;60.63;;;30.30;;
32906;SDS011;19259;51.590;5.320;2022-08-19T05:08:51;66.75;;;31.97;;
32906;SDS011;19259;51.590;5.320;2022-08-19T05:11:19;62.15;;;31.57;;
32906;SDS011;19259;51.590;5.320;2022-08-19T05:13:49;60.92;;;30.02;;
32906;SDS011;19259;51.590;5.320;2022-08-19T05:16:18;60.60;;;31.42;;
32906;SDS011;19259;51.590;5.320;2022-08-19T05:18:48;56.35;;;29.92;;
32906;SDS011;19259;51.590;5.320;2022-08-19T05:21:34;57.25;;;30.48;;
32906;SDS011;19259;51.590;5.320;2022-08-19T05:24:20;69.25;;;32.13;;
32906;SDS011;19259;51.590;5.320;2022-08-19T05:26:50;63.20;;;30.20;;
32906;SDS011;19259;51.590;5.320;2022-08-19T05:29:26;64.12;;;31.65;;
32906;SDS011;19259;51.590;5.320;2022-08-19T05:31:56;63.92;;;32.42;;
32906;SDS011;19259;51.590;5.320;2022-08-19T05:34:22;63.98;;;31.33;;
32906;SDS011;19259;51.590;5.320;2022-08-19T05:36:55;65.22;;;30.23;;
32906;SDS011;19259;51.590;5.320;2022-08-19T05:39:29;61.40;;;32.08;;
32906;SDS011;19259;51.590;5.320;2022-08-19T05:42:00;66.07;;;31.93;;
32906;SDS011;19259;51.590;5.320;2022-08-19T05:44:33;64.35;;;31.85;;
32906;SDS011;19259;51.590;5.320;2022-08-19T05:47:03;63.98;;;32.00;;
32906;SDS011;19259;51.590;5.320;2022-08-19T05:49:34;65.75;;;33.48;;
32906;SDS011;19259;51.590;5.320;2022-08-19T05:52:04;66.25;;;33.58;;
32906;SDS011;19259;51.590;5.320;2022-08-19T05:54:33;58.75;;;31.93;;
32906;SDS011;19259;51.590;5.320;2022-08-19T05:57:03;65.25;;;32.98;;
32906;SDS011;19259;51.590;5.320;2022-08-19T05:59:31;71.07;;;32.42;;
32906;SDS011;19259;51.590;5.320;2022-08-19T06:02:00;64.65;;;31.55;;
32906;SDS011;19259;51.590;5.320;2022-08-19T06:04:35;63.48;;;32.05;;
32906;SDS011;19259;51.590;5.320;2022-08-19T06:06:59;66.60;;;33.60;;
32906;SDS011;19259;51.590;5.320;2022-08-19T06:09:27;66.50;;;33.00;;
32906;SDS011;19259;51.590;5.320;2022-08-19T06:11:56;66.33;;;31.57;;
32906;SDS011;19259;51.590;5.320;2022-08-19T06:14:27;57.33;;;29.75;;
32906;SDS011;19259;51.590;5.320;2022-08-19T06:16:56;72.08;;;34.45;;
32906;SDS011;19259;51.590;5.320;2022-08-19T06:19:27;72.80;;;35.52;;
32906;SDS011;19259;51.590;5.320;2022-08-19T06:21:59;67.78;;;34.80;;
32906;SDS011;19259;51.590;5.320;2022-08-19T06:24:28;74.92;;;34.50;;
32906;SDS011;19259;51.590;5.320;2022-08-19T06:26:57;67.17;;;33.10;;
32906;SDS011;19259;51.590;5.320;2022-08-19T06:29:26;67.75;;;36.45;;
32906;SDS011;19259;51.590;5.320;2022-08-19T06:31:56;65.37;;;34.78;;
32906;SDS011;19259;51.590;5.320;2022-08-19T06:34:27;69.37;;;34.80;;
32906;SDS011;19259;51.590;5.320;2022-08-19T06:36:56;73.00;;;35.33;;
32906;SDS011;19259;51.590;5.320;2022-08-19T06:39:30;71.72;;;33.33;;
32906;SDS011;19259;51.590;5.320;2022-08-19T06:42:01;77.20;;;34.95;;
32906;SDS011;19259;51.590;5.320;2022-08-19T06:44:32;77.35;;;35.20;;
32906;SDS011;19259;51.590;5.320;2022-08-19T06:47:08;71.67;;;33.23;;
32906;SDS011;19259;51.590;5.320;2022-08-19T06:49:33;79.58;;;36.35;;
32906;SDS011;19259;51.590;5.320;2022-08-19T06:52:07;66.12;;;33.10;;
32906;SDS011;19259;51.590;5.320;2022-08-19T06:54:31;71.33;;;34.78;;
32906;SDS011;19259;51.590;5.320;2022-08-19T06:56:59;69.47;;;32.95;;
32906;SDS011;19259;51.590;5.320;2022-08-19T06:59:28;74.90;;;35.73;;
32906;SDS011;19259;51.590;5.320;2022-08-19T07:01:59;76.70;;;35.60;;
32906;SDS011;19259;51.590;5.320;2022-08-19T07:04:30;70.92;;;33.92;;
32906;SDS011;19259;51.590;5.320;2022-08-19T07:07:00;72.65;;;35.33;;
32906;SDS011;19259;51.590;5.320;2022-08-19T07:09:29;68.17;;;33.18;;
32906;SDS011;19259;51.590;5.320;2022-08-19T07:11:56;75.75;;;33.85;;
32906;SDS011;19259;51.590;5.320;2022-08-19T07:14:25;74.20;;;33.23;;
32906;SDS011;19259;51.590;5.320;2022-08-19T07:16:54;63.38;;;29.37;;
32906;SDS011;19259;51.590;5.320;2022-08-19T07:19:24;62.62;;;29.80;;
32906;SDS011;19259;51.590;5.320;2022-08-19T07:21:55;64.95;;;31.57;;
32906;SDS011;19259;51.590;5.320;2022-08-19T07:24:23;66.90;;;31.07;;
32906;SDS011;19259;51.590;5.320;2022-08-19T07:26:53;57.53;;;27.00;;
32906;SDS011;19259;51.590;5.320;2022-08-19T07:29:22;62.25;;;29.87;;
32906;SDS011;19259;51.590;5.320;2022-08-19T07:31:50;59.33;;;27.58;;
32906;SDS011;19259;51.590;5.320;2022-08-19T07:34:20;64.37;;;29.42;;
32906;SDS011;19259;51.590;5.320;2022-08-19T07:36:49;58.23;;;29.98;;
32906;SDS011;19259;51.590;5.320;2022-08-19T07:39:23;63.73;;;29.75;;
32906;SDS011;19259;51.590;5.320;2022-08-19T07:41:48;71.60;;;30.43;;
32906;SDS011;19259;51.590;5.320;2022-08-19T07:44:16;53.40;;;26.77;;
32906;SDS011;19259;51.590;5.320;2022-08-19T07:46:46;58.85;;;26.80;;
32906;SDS011;19259;51.590;5.320;2022-08-19T07:49:17;59.85;;;27.98;;
32906;SDS011;19259;51.590;5.320;2022-08-19T07:51:47;63.38;;;31.82;;
32906;SDS011;19259;51.590;5.320;2022-08-19T07:54:22;54.60;;;27.40;;
32906;SDS011;19259;51.590;5.320;2022-08-19T07:56:46;57.70;;;28.42;;
32906;SDS011;19259;51.590;5.320;2022-08-19T07:59:16;62.67;;;29.55;;
32906;SDS011;19259;51.590;5.320;2022-08-19T08:01:45;60.83;;;28.85;;
32906;SDS011;19259;51.590;5.320;2022-08-19T08:04:13;57.67;;;26.60;;
32906;SDS011;19259;51.590;5.320;2022-08-19T08:06:58;55.30;;;28.98;;
32906;SDS011;19259;51.590;5.320;2022-08-19T08:09:44;58.60;;;28.15;;
32906;SDS011;19259;51.590;5.320;2022-08-19T08:12:18;58.48;;;29.50;;
32906;SDS011;19259;51.590;5.320;2022-08-19T08:14:48;60.98;;;30.60;;
32906;SDS011;19259;51.590;5.320;2022-08-19T08:17:20;63.60;;;30.80;;
32906;SDS011;19259;51.590;5.320;2022-08-19T08:19:48;52.55;;;27.45;;
32906;SDS011;19259;51.590;5.320;2022-08-19T08:22:18;54.53;;;28.05;;
32906;SDS011;19259;51.590;5.320;2022-08-19T08:25:07;55.17;;;29.02;;
32906;SDS011;19259;51.590;5.320;2022-08-19T08:27:38;57.17;;;30.65;;
32906;SDS011;19259;51.590;5.320;2022-08-19T08:30:11;55.60;;;28.52;;
32906;SDS011;19259;51.590;5.320;2022-08-19T08:32:41;61.33;;;32.67;;
32906;SDS011;19259;51.590;5.320;2022-08-19T08:35:10;53.83;;;28.57;;
32906;SDS011;19259;51.590;5.320;2022-08-19T08:37:40;63.48;;;30.75;;
32906;SDS011;19259;51.590;5.320;2022-08-19T08:40:17;63.75;;;33.13;;
32906;SDS011;19259;51.590;5.320;2022-08-19T08:42:40;68.62;;;33.63;;
32906;SDS011;19259;51.590;5.320;2022-08-19T08:45:12;63.48;;;32.55;;
32906;SDS011;19259;51.590;5.320;2022-08-19T08:47:42;78.70;;;35.63;;
32906;SDS011;19259;51.590;5.320;2022-08-19T08:50:17;72.10;;;36.58;;
32906;SDS011;19259;51.590;5.320;2022-08-19T08:52:52;62.95;;;33.63;;
32906;SDS011;19259;51.590;5.320;2022-08-19T08:55:26;67.32;;;35.40;;
32906;SDS011;19259;51.590;5.320;2022-08-19T08:58:04;74.15;;;35.55;;
32906;SDS011;19259;51.590;5.320;2022-08-19T09:00:35;60.25;;;31.60;;
32906;SDS011;19259;51.590;5.320;2022-08-19T09:03:09;74.35;;;37.23;;
32906;SDS011;19259;51.590;5.320;2022-08-19T09:05:49;76.10;;;37.55;;
32906;SDS011;19259;51.590;5.320;2022-08-19T09:08:18;75.85;;;38.45;;
32906;SDS011;19259;51.590;5.320;2022-08-19T09:10:50;72.58;;;37.48;;
32906;SDS011;19259;51.590;5.320;2022-08-19T09:13:32;72.08;;;36.38;;
32906;SDS011;19259;51.590;5.320;2022-08-19T09:18:43;59.53;;;31.90;;
32906;SDS011;19259;51.590;5.320;2022-08-19T09:21:13;64.12;;;31.48;;
32906;SDS011;19259;51.590;5.320;2022-08-19T09:23:42;62.48;;;31.35;;
32906;SDS011;19259;51.590;5.320;2022-08-19T09:26:12;60.43;;;32.55;;
32906;SDS011;19259;51.590;5.320;2022-08-19T09:28:48;63.98;;;32.48;;
32906;SDS011;19259;51.590;5.320;2022-08-19T09:31:13;60.33;;;29.52;;
32906;SDS011;19259;51.590;5.320;2022-08-19T09:33:42;69.97;;;32.78;;
32906;SDS011;19259;51.590;5.320;2022-08-19T09:36:10;63.60;;;30.60;;
32906;SDS011;19259;51.590;5.320;2022-08-19T09:38:40;61.30;;;32.28;;
32906;SDS011;19259;51.590;5.320;2022-08-19T09:41:09;59.48;;;30.17;;
32906;SDS011;19259;51.590;5.320;2022-08-19T09:43:39;54.20;;;30.37;;
32906;SDS011;19259;51.590;5.320;2022-08-19T09:46:08;60.83;;;30.62;;
32906;SDS011;19259;51.590;5.320;2022-08-19T09:48:36;60.67;;;30.92;;
32906;SDS011;19259;51.590;5.320;2022-08-19T09:51:05;59.50;;;31.68;;
32906;SDS011;19259;51.590;5.320;2022-08-19T09:53:35;59.58;;;31.23;;
32906;SDS011;19259;51.590;5.320;2022-08-19T09:56:04;62.23;;;30.95;;
32906;SDS011;19259;51.590;5.320;2022-08-19T09:58:32;65.85;;;33.05;;
32906;SDS011;19259;51.590;5.320;2022-08-19T10:01:02;61.83;;;31.93;;
32906;SDS011;19259;51.590;5.320;2022-08-19T10:03:32;63.02;;;31.97;;
32906;SDS011;19259;51.590;5.320;2022-08-19T10:06:01;70.83;;;33.38;;
32906;SDS011;19259;51.590;5.320;2022-08-19T10:08:33;70.30;;;34.55;;
32906;SDS011;19259;51.590;5.320;2022-08-19T10:11:01;63.87;;;33.30;;
32906;SDS011;19259;51.590;5.320;2022-08-19T10:13:30;62.95;;;33.02;;
32906;SDS011;19259;51.590;5.320;2022-08-19T10:16:05;60.25;;;33.40;;
32906;SDS011;19259;51.590;5.320;2022-08-19T10:18:34;65.37;;;33.42;;
32906;SDS011;19259;51.590;5.320;2022-08-19T10:21:06;64.97;;;33.67;;
32906;SDS011;19259;51.590;5.320;2022-08-19T10:23:36;62.40;;;34.43;;
32906;SDS011;19259;51.590;5.320;2022-08-19T10:26:13;57.55;;;28.65;;
32906;SDS011;19259;51.590;5.320;2022-08-19T10:28:42;60.60;;;33.63;;
32906;SDS011;19259;51.590;5.320;2022-08-19T10:31:11;64.50;;;33.38;;
32906;SDS011;19259;51.590;5.320;2022-08-19T10:33:41;61.68;;;32.73;;
32906;SDS011;19259;51.590;5.320;2022-08-19T10:36:11;54.42;;;29.92;;
32906;SDS011;19259;51.590;5.320;2022-08-19T10:38:45;65.50;;;33.15;;
32906;SDS011;19259;51.590;5.320;2022-08-19T10:41:19;65.65;;;32.20;;
32906;SDS011;19259;51.590;5.320;2022-08-19T10:43:57;62.45;;;33.28;;
32906;SDS011;19259;51.590;5.320;2022-08-19T10:46:25;55.52;;;29.50;;
32906;SDS011;19259;51.590;5.320;2022-08-19T10:48:56;63.17;;;33.40;;
32906;SDS011;19259;51.590;5.320;2022-08-19T10:51:23;65.30;;;33.35;;
32906;SDS011;19259;51.590;5.320;2022-08-19T10:54:09;59.95;;;31.30;;
32906;SDS011;19259;51.590;5.320;2022-08-19T10:56:37;50.63;;;28.62;;
32906;SDS011;19259;51.590;5.320;2022-08-19T10:59:22;67.37;;;32.42;;
32906;SDS011;19259;51.590;5.320;2022-08-19T11:01:59;61.90;;;32.40;;
32906;SDS011;19259;51.590;5.320;2022-08-19T11:04:27;60.60;;;32.33;;
32906;SDS011;19259;51.590;5.320;2022-08-19T11:06:55;63.75;;;32.85;;
32906;SDS011;19259;51.590;5.320;2022-08-19T11:09:24;62.20;;;32.98;;
32906;SDS011;19259;51.590;5.320;2022-08-19T11:11:55;63.08;;;32.67;;
32906;SDS011;19259;51.590;5.320;2022-08-19T11:14:23;56.42;;;32.53;;
32906;SDS011;19259;51.590;5.320;2022-08-19T11:16:51;60.55;;;30.23;;
32906;SDS011;19259;51.590;5.320;2022-08-19T11:19:21;60.05;;;31.85;;
32906;SDS011;19259;51.590;5.320;2022-08-19T11:21:50;58.28;;;30.68;;
32906;SDS011;19259;51.590;5.320;2022-08-19T11:24:21;53.30;;;29.42;;
32906;SDS011;19259;51.590;5.320;2022-08-19T11:26:51;45.20;;;24.65;;
32906;SDS011;19259;51.590;5.320;2022-08-19T11:29:24;46.33;;;27.67;;
32906;SDS011;19259;51.590;5.320;2022-08-19T11:31:53;51.33;;;28.02;;
32906;SDS011;19259;51.590;5.320;2022-08-19T11:34:23;46.92;;;25.00;;
32906;SDS011;19259;51.590;5.320;2022-08-19T11:36:53;41.45;;;24.02;;
32906;SDS011;19259;51.590;5.320;2022-08-19T11:39:26;47.40;;;26.00;;
32906;SDS011;19259;51.590;5.320;2022-08-19T11:41:57;38.90;;;23.52;;
32906;SDS011;19259;51.590;5.320;2022-08-19T11:44:26;43.52;;;24.85;;
32906;SDS011;19259;51.590;5.320;2022-08-19T11:46:55;45.45;;;25.32;;
32906;SDS011;19259;51.590;5.320;2022-08-19T11:49:23;43.05;;;22.62;;
32906;SDS011;19259;51.590;5.320;2022-08-19T11:51:51;39.10;;;22.85;;
32906;SDS011;19259;51.590;5.320;2022-08-19T11:54:19;41.50;;;23.62;;
32906;SDS011;19259;51.590;5.320;2022-08-19T11:56:46;45.20;;;24.72;;
32906;SDS011;19259;51.590;5.320;2022-08-19T11:59:14;42.05;;;23.07;;
32906;SDS011;19259;51.590;5.320;2022-08-19T12:01:42;36.85;;;20.10;;
32906;SDS011;19259;51.590;5.320;2022-08-19T12:04:10;37.83;;;20.32;;
32906;SDS011;19259;51.590;5.320;2022-08-19T12:06:38;40.55;;;22.73;;
32906;SDS011;19259;51.590;5.320;2022-08-19T12:09:07;42.93;;;23.27;;
32906;SDS011;19259;51.590;5.320;2022-08-19T12:11:40;39.18;;;22.30;;
32906;SDS011;19259;51.590;5.320;2022-08-19T12:14:06;46.10;;;25.08;;
32906;SDS011;19259;51.590;5.320;2022-08-19T12:16:36;38.35;;;22.22;;
32906;SDS011;19259;51.590;5.320;2022-08-19T12:19:05;41.33;;;21.73;;
32906;SDS011;19259;51.590;5.320;2022-08-19T12:21:33;45.12;;;23.47;;
32906;SDS011;19259;51.590;5.320;2022-08-19T12:24:03;35.78;;;21.62;;
32906;SDS011;19259;51.590;5.320;2022-08-19T12:26:31;35.60;;;21.02;;
32906;SDS011;19259;51.590;5.320;2022-08-19T12:28:59;39.42;;;22.55;;
32906;SDS011;19259;51.590;5.320;2022-08-19T12:31:27;38.05;;;21.70;;
32906;SDS011;19259;51.590;5.320;2022-08-19T12:33:55;33.08;;;18.70;;
32906;SDS011;19259;51.590;5.320;2022-08-19T12:36:23;37.05;;;21.07;;
32906;SDS011;19259;51.590;5.320;2022-08-19T12:38:51;36.93;;;21.62;;
32906;SDS011;19259;51.590;5.320;2022-08-19T12:41:20;40.85;;;22.87;;
32906;SDS011;19259;51.590;5.320;2022-08-19T12:43:48;42.80;;;24.37;;
32906;SDS011;19259;51.590;5.320;2022-08-19T12:46:16;38.95;;;23.05;;
32906;SDS011;19259;51.590;5.320;2022-08-19T12:48:46;39.65;;;23.00;;
32906;SDS011;19259;51.590;5.320;2022-08-19T12:51:15;43.23;;;24.30;;
32906;SDS011;19259;51.590;5.320;2022-08-19T12:53:45;50.30;;;25.40;;
32906;SDS011;19259;51.590;5.320;2022-08-19T12:56:14;51.30;;;26.70;;
32906;SDS011;19259;51.590;5.320;2022-08-19T12:58:42;45.33;;;25.95;;
32906;SDS011;19259;51.590;5.320;2022-08-19T13:01:14;47.05;;;26.33;;
32906;SDS011;19259;51.590;5.320;2022-08-19T13:03:49;51.28;;;27.15;;
32906;SDS011;19259;51.590;5.320;2022-08-19T13:06:13;45.98;;;24.95;;
32906;SDS011;19259;51.590;5.320;2022-08-19T13:08:41;48.87;;;25.82;;
32906;SDS011;19259;51.590;5.320;2022-08-19T13:11:12;42.85;;;25.48;;
32906;SDS011;19259;51.590;5.320;2022-08-19T13:13:43;48.48;;;25.77;;
32906;SDS011;19259;51.590;5.320;2022-08-19T13:16:12;46.88;;;25.82;;
32906;SDS011;19259;51.590;5.320;2022-08-19T13:18:41;47.93;;;26.02;;
32906;SDS011;19259;51.590;5.320;2022-08-19T13:21:10;53.20;;;26.95;;
32906;SDS011;19259;51.590;5.320;2022-08-19T13:23:39;46.25;;;25.52;;
32906;SDS011;19259;51.590;5.320;2022-08-19T13:26:07;43.40;;;24.27;;
32906;SDS011;19259;51.590;5.320;2022-08-19T13:28:36;41.60;;;22.58;;
32906;SDS011;19259;51.590;5.320;2022-08-19T13:31:22;37.88;;;21.87;;
32906;SDS011;19259;51.590;5.320;2022-08-19T13:34:09;39.45;;;21.15;;
32906;SDS011;19259;51.590;5.320;2022-08-19T13:36:37;35.33;;;18.77;;
32906;SDS011;19259;51.590;5.320;2022-08-19T13:39:06;31.75;;;17.67;;
32906;SDS011;19259;51.590;5.320;2022-08-19T13:41:35;36.00;;;16.82;;
32906;SDS011;19259;51.590;5.320;2022-08-19T13:44:03;32.53;;;17.60;;
32906;SDS011;19259;51.590;5.320;2022-08-19T13:46:32;27.87;;;15.83;;
32906;SDS011;19259;51.590;5.320;2022-08-19T13:48:59;28.60;;;15.93;;
32906;SDS011;19259;51.590;5.320;2022-08-19T13:51:27;27.40;;;16.07;;
32906;SDS011;19259;51.590;5.320;2022-08-19T13:54:00;30.70;;;17.85;;
32906;SDS011;19259;51.590;5.320;2022-08-19T13:56:24;26.42;;;15.93;;
32906;SDS011;19259;51.590;5.320;2022-08-19T13:58:51;30.48;;;17.45;;
32906;SDS011;19259;51.590;5.320;2022-08-19T14:01:22;29.77;;;17.07;;
32906;SDS011;19259;51.590;5.320;2022-08-19T14:03:52;35.33;;;16.87;;
32906;SDS011;19259;51.590;5.320;2022-08-19T14:06:19;29.72;;;16.70;;
32906;SDS011;19259;51.590;5.320;2022-08-19T14:08:48;26.80;;;16.00;;
32906;SDS011;19259;51.590;5.320;2022-08-19T14:11:15;25.05;;;15.03;;
32906;SDS011;19259;51.590;5.320;2022-08-19T14:13:43;26.00;;;15.43;;
32906;SDS011;19259;51.590;5.320;2022-08-19T14:16:11;26.75;;;15.75;;
32906;SDS011;19259;51.590;5.320;2022-08-19T14:18:40;27.15;;;15.35;;
32906;SDS011;19259;51.590;5.320;2022-08-19T14:21:13;29.35;;;14.95;;
32906;SDS011;19259;51.590;5.320;2022-08-19T14:23:43;23.40;;;13.22;;
32906;SDS011;19259;51.590;5.320;2022-08-19T14:26:12;24.47;;;13.22;;
32906;SDS011;19259;51.590;5.320;2022-08-19T14:28:41;22.17;;;12.73;;
32906;SDS011;19259;51.590;5.320;2022-08-19T14:31:10;26.60;;;12.98;;
32906;SDS011;19259;51.590;5.320;2022-08-19T14:33:40;23.90;;;13.38;;
32906;SDS011;19259;51.590;5.320;2022-08-19T14:36:08;22.00;;;12.50;;
32906;SDS011;19259;51.590;5.320;2022-08-19T14:38:35;25.27;;;13.35;;
32906;SDS011;19259;51.590;5.320;2022-08-19T14:41:07;27.95;;;13.70;;